Time;durP1;ratioP1;P1;durP2;ratioP2;P2;SDS_P1;SDS_P2;PMS_P1;PMS_P2;Temp;Humidity;BMP_temperature;BMP_pressure;BME280_temperature;BME280_humidity;BME280_pressure;Samples;Min_cycle;Max_cycle;Signal;HPM_P1;HPM_P2
2022/10/02 00:02:41;;;;;;;5.47;1.58;;;11.50;99.90;;;11.12;100.00;97536.59;5076896;28;20397;-42
2022/10/02 00:05:36;;;;;;;3.78;1.45;;;11.60;99.90;;;11.16;100.00;97532.91;5073195;28;20052;-43
2022/10/02 00:08:09;;;;;;;5.47;1.55;;;11.60;99.90;;;11.18;100.00;97531.94;5050010;28;20047;-43
2022/10/02 00:10:47;;;;;;;6.57;1.40;;;11.60;99.90;;;11.23;100.00;97537.91;5075423;28;20035;-43
2022/10/02 00:13:30;;;;;;;4.93;1.73;;;11.70;99.90;;;11.16;100.00;97535.53;5078851;28;20044;-42
2022/10/02 00:15:56;;;;;;;7.63;1.75;;;11.80;99.90;;;11.26;100.00;97545.72;5074175;28;20028;-43
2022/10/02 00:18:31;;;;;;;7.28;1.67;;;11.80;99.90;;;11.34;100.00;97553.38;5077708;28;20110;-43
2022/10/02 00:21:20;;;;;;;7.00;1.70;;;11.90;99.90;;;11.38;100.00;97540.91;5073829;28;20024;-41
2022/10/02 00:23:56;;;;;;;8.15;1.52;;;11.90;99.90;;;11.39;100.00;97526.75;5071928;28;20033;-43
2022/10/02 00:27:03;;;;;;;6.07;1.70;;;11.90;99.90;;;11.39;100.00;97543.47;5079057;28;20031;-42
2022/10/02 00:29:58;;;;;;;5.90;1.45;;;11.90;99.90;;;11.31;100.00;97528.84;5036010;28;20328;-45
2022/10/02 00:32:34;;;;;;;7.00;1.60;;;11.90;99.90;;;11.37;100.00;97536.53;5075258;28;20306;-41
2022/10/02 00:35:37;;;;;;;4.75;1.58;;;11.90;99.90;;;11.36;100.00;97535.69;5076553;28;20043;-43
2022/10/02 00:38:20;;;;;;;7.88;2.17;;;11.90;99.90;;;11.37;100.00;97557.66;5074791;28;20020;-45
2022/10/02 00:41:42;;;;;;;5.13;1.60;;;11.90;99.90;;;11.38;100.00;97559.38;5071943;28;20066;-42
2022/10/02 00:44:40;;;;;;;4.40;1.15;;;11.90;99.90;;;11.38;100.00;97554.09;5051747;28;21722;-42
2022/10/02 00:47:38;;;;;;;4.20;1.20;;;11.90;99.90;;;11.37;100.00;97544.44;5076435;28;20039;-44
2022/10/02 00:50:50;;;;;;;3.58;1.40;;;11.90;99.90;;;11.36;100.00;97537.44;5074144;28;20062;-41
2022/10/02 00:53:51;;;;;;;3.83;1.08;;;11.90;99.90;;;11.38;100.00;97546.19;5073685;28;20039;-42
2022/10/02 00:56:40;;;;;;;6.88;1.30;;;11.90;99.90;;;11.38;100.00;97549.69;5072442;28;20036;-41
2022/10/02 00:59:37;;;;;;;7.95;1.50;;;11.90;99.90;;;11.39;100.00;97547.88;5075419;28;20032;-42
2022/10/02 01:02:25;;;;;;;7.18;1.23;;;11.90;99.90;;;11.42;100.00;97553.91;5072692;28;20062;-44
2022/10/02 01:04:52;;;;;;;9.93;1.63;;;11.90;99.90;;;11.41;100.00;97553.97;5071238;28;20577;-42
2022/10/02 01:07:19;;;;;;;3.67;1.40;;;11.90;99.90;;;11.36;100.00;97550.63;5070813;28;20136;-44
2022/10/02 01:09:45;;;;;;;6.07;1.48;;;11.90;99.90;;;11.43;100.00;97566.22;5070916;28;20051;-43
2022/10/02 01:12:11;;;;;;;6.53;1.48;;;11.90;99.90;;;11.42;100.00;97566.25;5074941;28;20509;-42
2022/10/02 01:14:40;;;;;;;7.65;1.40;;;11.90;99.90;;;11.43;100.00;97562.69;5073646;28;20394;-43
2022/10/02 01:17:18;;;;;;;8.68;1.83;;;11.90;99.90;;;11.43;100.00;97554.75;5072498;28;20050;-42
2022/10/02 01:19:44;;;;;;;8.00;1.40;;;12.00;99.90;;;11.45;100.00;97561.72;5072921;28;20070;-46
2022/10/02 01:22:37;;;;;;;4.65;1.50;;;12.00;99.90;;;11.48;100.00;97562.53;5075021;28;20032;-43
2022/10/02 01:25:05;;;;;;;4.93;1.20;;;12.00;99.90;;;11.47;100.00;97559.03;5072655;28;20393;-42
2022/10/02 01:27:33;;;;;;;4.72;1.33;;;12.00;99.90;;;11.46;100.00;97554.66;5072794;28;20052;-43
2022/10/02 01:30:06;;;;;;;2.47;1.00;;;12.00;99.90;;;11.38;100.00;97541.75;5070204;28;20032;-42
2022/10/02 01:32:34;;;;;;;6.68;1.20;;;12.00;99.90;;;11.48;100.00;97560.75;5070505;28;20032;-43
2022/10/02 01:35:01;;;;;;;7.68;1.13;;;12.00;99.90;;;11.45;100.00;97556.44;5074066;28;20024;-41
2022/10/02 01:37:32;;;;;;;4.28;1.25;;;11.90;99.90;;;11.45;100.00;97563.53;5074140;28;20021;-42
2022/10/02 01:40:06;;;;;;;4.47;1.13;;;11.90;99.90;;;11.42;100.00;97547.78;5075010;28;20028;-41
2022/10/02 01:42:33;;;;;;;4.95;1.52;;;12.00;99.90;;;11.37;100.00;97525.97;5071775;28;20345;-45
2022/10/02 01:44:59;;;;;;;5.05;1.35;;;12.00;99.90;;;11.48;100.00;97550.16;5073880;28;20495;-43
2022/10/02 01:47:53;;;;;;;5.10;1.27;;;12.00;99.90;;;11.52;100.00;97558.84;5077450;22;20051;-58
2022/10/02 01:50:48;;;;;;;2.55;0.90;;;12.00;99.90;;;11.52;100.00;97566.75;5052433;28;20044;-57
2022/10/02 01:53:22;;;;;;;5.45;1.27;;;12.00;99.90;;;11.55;100.00;97570.16;5056284;28;20398;-56
2022/10/02 01:56:02;;;;;;;3.65;1.20;;;12.10;99.90;;;11.58;100.00;97566.56;5052767;28;20056;-56
2022/10/02 01:59:04;;;;;;;4.00;1.33;;;12.10;99.90;;;11.59;100.00;97584.97;5051160;28;20028;-56
2022/10/02 02:01:40;;;;;;;1.83;1.00;;;12.10;99.90;;;11.61;100.00;97575.22;5050413;28;20025;-56
2022/10/02 02:04:28;;;;;;;4.90;1.25;;;12.10;99.90;;;11.59;100.00;97571.78;5048193;28;20017;-56
2022/10/02 02:07:17;;;;;;;6.60;1.45;;;12.10;99.90;;;11.64;100.00;97574.22;5054282;28;20508;-57
2022/10/02 02:09:57;;;;;;;3.55;1.15;;;12.10;99.90;;;11.64;100.00;97574.22;5048266;28;20473;-57
2022/10/02 02:12:39;;;;;;;4.10;1.10;;;12.10;99.90;;;11.63;100.00;97570.72;5049112;28;20040;-56
2022/10/02 02:15:42;;;;;;;5.72;1.15;;;12.10;99.90;;;11.61;100.00;97579.63;5048516;28;20029;-57
2022/10/02 02:18:22;;;;;;;3.00;0.90;;;12.10;99.90;;;11.62;100.00;97582.19;5048364;28;20093;-57
2022/10/02 02:20:52;;;;;;;2.47;1.00;;;12.10;99.90;;;11.61;100.00;97587.53;5047844;28;20025;-58
2022/10/02 02:23:25;;;;;;;5.43;1.10;;;12.10;99.90;;;11.63;100.00;97583.94;5048887;28;20553;-57
2022/10/02 02:26:00;;;;;;;2.63;1.00;;;12.10;99.90;;;11.64;100.00;97577.72;5030427;28;20393;-57
2022/10/02 02:28:29;;;;;;;4.55;1.60;;;12.10;99.90;;;11.64;100.00;97567.16;5049690;28;20025;-57
2022/10/02 02:30:57;;;;;;;4.82;1.35;;;12.10;99.90;;;11.67;100.00;97578.53;5049168;28;20106;-56
2022/10/02 02:33:42;;;;;;;2.55;1.13;;;12.20;99.90;;;11.70;100.00;97583.69;5048452;28;20060;-56
2022/10/02 02:36:13;;;;;;;1.98;1.20;;;12.20;99.90;;;11.69;100.00;97587.28;5048989;28;20020;-56
2022/10/02 02:38:49;;;;;;;5.18;1.52;;;12.20;99.90;;;11.74;100.00;97580.88;5045378;28;20051;-57
2022/10/02 02:41:23;;;;;;;5.10;1.23;;;12.20;99.90;;;11.76;100.00;97583.47;5063856;28;20024;-56
2022/10/02 02:44:12;;;;;;;2.92;1.30;;;12.20;99.90;;;11.77;100.00;97566.69;5050190;28;20418;-56
2022/10/02 02:47:02;;;;;;;4.05;1.20;;;12.30;99.90;;;11.76;100.00;97567.63;5046104;28;20040;-57
2022/10/02 02:49:59;;;;;;;2.92;1.10;;;12.30;99.90;;;11.76;100.00;97570.25;5046889;28;20032;-57
2022/10/02 02:52:35;;;;;;;2.13;1.20;;;12.30;99.90;;;11.63;100.00;97557.53;5044602;28;20144;-57
2022/10/02 02:55:14;;;;;;;4.40;1.33;;;12.20;99.90;;;11.76;100.00;97564.97;5045936;28;20139;-57
2022/10/02 02:58:16;;;;;;;3.90;1.35;;;12.20;99.90;;;11.75;100.00;97573.81;5049162;28;20024;-57
2022/10/02 03:00:42;;;;;;;5.10;1.17;;;12.20;99.90;;;11.76;100.00;97575.53;5047978;28;20051;-57
2022/10/02 03:03:08;;;;;;;7.22;1.80;;;12.20;99.90;;;11.75;100.00;97579.94;5047392;28;20052;-57
2022/10/02 03:05:38;;;;;;;3.25;1.10;;;12.20;99.90;;;11.77;100.00;97593.09;5049044;28;20767;-56
2022/10/02 03:08:21;;;;;;;5.30;1.30;;;12.30;99.90;;;11.77;100.00;97590.47;5048525;28;20025;-57
2022/10/02 03:11:12;;;;;;;4.72;1.30;;;12.20;99.90;;;11.75;100.00;97587.03;5048910;28;20025;-57
2022/10/02 03:14:22;;;;;;;3.35;1.00;;;12.30;99.90;;;11.78;100.00;97594.84;5047837;28;20027;-57
2022/10/02 03:17:15;;;;;;;7.05;1.48;;;12.20;99.90;;;11.80;100.00;97593.00;5045758;28;20039;-56
2022/10/02 03:20:01;;;;;;;2.95;0.98;;;12.30;99.90;;;11.80;100.00;97587.72;5050308;28;20524;-57
2022/10/02 03:22:53;;;;;;;4.07;1.30;;;12.30;99.90;;;11.80;100.00;97590.34;5050255;28;20041;-57
2022/10/02 03:25:22;;;;;;;;;;;12.30;99.90;;;11.80;100.00;97585.06;5048786;28;20041;-57
2022/10/02 03:28:05;;;;;;;2.80;1.02;;;12.30;99.90;;;11.79;100.00;97585.97;5049722;28;20210;-57
2022/10/02 03:30:32;;;;;;;5.38;1.33;;;12.20;99.90;;;11.75;100.00;97579.09;5046269;28;20537;-57
2022/10/02 03:32:59;;;;;;;2.40;1.00;;;12.30;99.90;;;11.79;100.00;97588.63;5046847;28;20507;-57
2022/10/02 03:35:27;;;;;;;4.38;1.23;;;12.20;99.90;;;11.76;100.00;97586.97;5046809;28;20501;-57
2022/10/02 03:37:57;;;;;;;5.57;1.20;;;12.30;99.90;;;11.74;100.00;97582.69;5047544;28;20044;-57
2022/10/02 03:40:24;;;;;;;3.72;1.20;;;12.20;99.90;;;11.74;100.00;97593.25;5048720;28;20425;-57
2022/10/02 03:42:51;;;;;;;3.50;1.17;;;12.20;99.90;;;11.72;100.00;97588.00;5047569;28;20032;-57
2022/10/02 03:45:18;;;;;;;4.32;1.30;;;12.20;99.90;;;11.71;100.00;97582.78;5046764;28;20051;-57
2022/10/02 03:47:45;;;;;;;3.30;1.27;;;12.20;99.90;;;11.67;100.00;97571.47;5048596;28;20035;-57
2022/10/02 03:50:14;;;;;;;6.00;1.35;;;12.20;99.90;;;11.69;100.00;97574.91;5047356;28;20041;-57
2022/10/02 03:52:40;;;;;;;8.50;1.75;;;12.20;99.90;;;11.67;100.00;97562.69;5048312;28;20517;-57
2022/10/02 03:55:34;;;;;;;4.75;1.45;;;12.20;99.90;;;11.61;100.00;97561.13;5046886;28;20032;-57
2022/10/02 03:58:12;;;;;;;4.35;1.20;;;12.10;99.90;;;11.64;100.00;97579.50;5047674;28;20029;-56
2022/10/02 04:00:48;;;;;;;3.22;1.30;;;12.10;99.90;;;11.62;100.00;97576.91;5048530;28;20094;-56
2022/10/02 04:03:33;;;;;;;3.30;1.35;;;12.10;99.90;;;11.62;100.00;97570.78;5047014;28;20025;-57
2022/10/02 04:06:40;;;;;;;4.05;1.60;;;12.10;99.90;;;11.63;100.00;97583.09;5049870;28;20025;-57
2022/10/02 04:09:15;;;;;;;3.80;1.30;;;12.10;99.90;;;11.62;100.00;97584.00;5047700;28;20040;-57
2022/10/02 04:12:10;;;;;;;3.97;1.40;;;12.10;99.90;;;11.61;100.00;97583.16;5046253;28;20503;-57
2022/10/02 04:15:05;;;;;;;4.07;1.42;;;12.10;99.90;;;11.63;100.00;97591.00;5036337;28;20056;-57
2022/10/02 04:17:43;;;;;;;3.15;1.00;;;12.10;99.90;;;11.61;100.00;97580.50;5040856;28;20441;-57
2022/10/02 04:20:23;;;;;;;5.40;1.30;;;12.10;99.90;;;11.61;100.00;97591.06;5045899;28;20040;-57
2022/10/02 04:23:13;;;;;;;7.82;1.60;;;12.10;99.90;;;11.59;100.00;97590.28;5050066;28;20046;-57
2022/10/02 04:25:46;;;;;;;5.32;1.27;;;12.10;99.90;;;11.59;100.00;97590.28;5047609;28;20738;-57
2022/10/02 04:28:18;;;;;;;;;;;12.10;99.90;;;11.58;100.00;97588.53;5048471;28;20122;-56
2022/10/02 04:30:44;;;;;;;3.75;1.30;;;12.10;99.90;;;11.57;100.00;97591.22;5045969;28;19913;-57
2022/10/02 04:33:13;;;;;;;7.63;1.25;;;12.10;99.90;;;11.57;100.00;97583.31;5046973;28;20068;-56
2022/10/02 04:36:26;;;;;;;9.05;1.88;;;12.00;99.90;;;11.57;100.00;97594.72;5046629;28;20258;-57
2022/10/02 04:39:14;;;;;;;6.63;1.50;;;12.10;99.90;;;11.58;100.00;97588.53;5049027;28;20115;-57
2022/10/02 04:41:55;;;;;;;6.45;1.70;;;12.10;99.90;;;11.59;100.00;97590.28;5045272;28;20333;-57
2022/10/02 04:44:53;;;;;;;4.82;1.38;;;12.10;99.90;;;11.62;100.00;97590.13;5049550;28;20063;-56
2022/10/02 04:47:32;;;;;;;6.60;1.48;;;12.10;99.90;;;11.63;100.00;97591.00;5047762;28;20043;-57
2022/10/02 04:50:17;;;;;;;5.75;1.48;;;12.10;99.90;;;11.65;100.00;97594.44;5049562;28;20029;-57
2022/10/02 04:52:54;;;;;;;8.05;1.48;;;12.10;99.90;;;11.62;100.00;97582.19;5050533;28;20040;-57
2022/10/02 04:55:34;;;;;;;5.72;1.40;;;12.10;99.90;;;11.63;100.00;97586.59;5049169;28;20078;-57
2022/10/02 04:58:36;;;;;;;7.05;2.28;;;12.10;99.90;;;11.60;100.00;97591.97;5049533;28;20028;-57
2022/10/02 05:01:15;;;;;;;5.53;1.52;;;12.10;99.90;;;11.63;100.00;97585.72;5066208;28;20037;-56
2022/10/02 05:04:08;;;;;;;9.18;1.23;;;12.10;99.90;;;11.64;100.00;97584.78;5050085;28;20033;-56
2022/10/02 05:06:59;;;;;;;3.90;1.30;;;12.10;99.90;;;11.64;100.00;97588.28;5048807;28;20082;-57
2022/10/02 05:09:57;;;;;;;3.53;1.00;;;12.10;99.90;;;11.64;100.00;97580.38;5051065;28;20075;-57
2022/10/02 05:13:05;;;;;;;3.97;0.95;;;12.10;99.90;;;11.61;100.00;97575.22;5050759;28;20124;-57
2022/10/02 05:16:08;;;;;;;2.35;0.75;;;12.10;99.90;;;11.59;100.00;97574.41;5048805;28;20143;-56
2022/10/02 05:18:59;;;;;;;3.97;1.10;;;12.10;99.90;;;11.57;100.00;97573.59;5012949;28;20043;-57
2022/10/02 05:21:53;;;;;;;2.63;0.90;;;12.10;99.90;;;11.57;100.00;97578.88;5048717;28;20053;-57
2022/10/02 05:24:45;;;;;;;2.78;0.80;;;12.10;99.90;;;11.55;100.00;97575.44;5047790;28;20035;-56
2022/10/02 05:28:00;;;;;;;3.57;0.90;;;12.00;99.90;;;11.52;100.00;97577.31;5048306;28;20040;-57
2022/10/02 05:30:37;;;;;;;2.65;1.05;;;12.00;99.90;;;11.52;100.00;97572.94;5037570;28;20059;-57
2022/10/02 05:33:21;;;;;;;5.65;0.93;;;12.00;99.90;;;11.51;100.00;97583.56;5047787;28;20025;-57
2022/10/02 05:36:28;;;;;;;5.00;1.00;;;12.00;99.90;;;11.50;100.00;97581.81;5050817;28;20032;-57
2022/10/02 05:39:17;;;;;;;1.65;1.05;;;12.00;99.90;;;11.50;100.00;97582.66;5049999;28;20093;-56
2022/10/02 05:42:03;;;;;;;2.20;1.10;;;12.00;99.90;;;11.51;100.00;97584.41;5047682;28;20039;-57
2022/10/02 05:44:44;;;;;;;3.63;1.10;;;12.00;99.90;;;11.53;100.00;97587.84;5050910;28;20109;-57
2022/10/02 05:47:26;;;;;;;2.47;1.00;;;12.00;99.90;;;11.54;100.00;97581.66;5057692;28;20525;-57
2022/10/02 05:50:17;;;;;;;4.82;1.00;;;12.00;99.90;;;11.56;100.00;97578.97;5050149;28;20489;-57
2022/10/02 05:52:57;;;;;;;1.45;1.00;;;12.00;99.90;;;11.58;100.00;97580.59;5040182;28;20045;-57
2022/10/02 05:55:46;;;;;;;2.25;0.95;;;12.00;99.90;;;11.61;100.00;97582.25;5048285;28;20037;-56
2022/10/02 05:58:31;;;;;;;4.00;1.15;;;12.10;99.90;;;11.63;100.00;97591.88;5067366;28;20047;-57
2022/10/02 06:01:16;;;;;;;3.45;1.00;;;12.10;99.90;;;11.64;100.00;97587.44;5050674;28;20036;-56
2022/10/02 06:04:10;;;;;;;3.28;1.20;;;12.10;99.90;;;11.68;100.00;97599.59;5049884;28;20033;-56
2022/10/02 06:06:41;;;;;;;6.15;1.17;;;12.10;99.90;;;11.71;100.00;97596.00;5035600;28;20023;-57
2022/10/02 06:09:20;;;;;;;5.23;1.07;;;12.20;99.90;;;11.72;100.00;97601.22;5049721;28;20497;-57
2022/10/02 06:11:58;;;;;;;3.78;0.90;;;12.20;99.90;;;11.74;100.00;97604.66;5048423;28;20291;-57
2022/10/02 06:14:36;;;;;;;4.25;1.33;;;12.20;99.90;;;11.77;100.00;97604.56;5047445;28;20033;-56
2022/10/02 06:17:19;;;;;;;2.45;1.10;;;12.20;99.90;;;11.80;100.00;97608.84;5049483;28;20500;-57
2022/10/02 06:20:02;;;;;;;4.13;1.20;;;12.30;99.90;;;11.83;100.00;97603.44;5048209;28;20032;-56
2022/10/02 06:22:34;;;;;;;6.13;1.30;;;12.30;99.90;;;11.86;100.00;97603.31;5048452;28;20032;-56
2022/10/02 06:25:02;;;;;;;;;;;12.30;99.90;;;11.88;100.00;97601.50;5050489;28;20504;-57
2022/10/02 06:27:45;;;;;;;3.67;0.90;;;12.30;99.90;;;11.92;100.00;97603.13;5048993;28;19924;-56
2022/10/02 06:30:17;;;;;;;5.93;1.33;;;12.40;99.90;;;11.95;100.00;97588.91;5047968;28;20029;-57
2022/10/02 06:33:27;;;;;;;3.80;1.10;;;12.40;99.90;;;12.00;100.00;97579.88;5049773;28;20451;-57
2022/10/02 06:36:12;;;;;;;3.65;1.35;;;12.50;99.90;;;12.05;100.00;97576.22;5048247;28;20033;-57
2022/10/02 06:39:18;;;;;;;5.88;1.30;;;12.50;99.90;;;12.08;100.00;97573.41;5042138;28;20033;-56
2022/10/02 06:42:06;;;;;;;3.95;1.48;;;12.50;99.90;;;12.10;100.00;97559.22;5049041;28;20036;-56
2022/10/02 06:44:47;;;;;;;4.60;1.08;;;12.50;99.90;;;12.11;100.00;97558.28;5050727;28;20124;-57
2022/10/02 06:47:34;;;;;;;6.15;1.40;;;12.50;99.90;;;12.11;100.00;97539.78;5048496;28;20119;-56
2022/10/02 06:50:51;;;;;;;4.72;1.35;;;12.60;99.90;;;12.11;100.00;97549.50;5051138;28;20094;-56
2022/10/02 06:53:38;;;;;;;7.00;1.20;;;12.60;99.90;;;12.11;100.00;97553.00;5054250;28;20036;-56
2022/10/02 06:56:40;;;;;;;3.92;1.17;;;12.50;99.90;;;12.12;100.00;97549.47;5045726;28;20032;-57
2022/10/02 06:59:13;;;;;;;5.17;1.53;;;12.50;99.90;;;12.10;100.00;97559.22;5050349;28;20047;-57
2022/10/02 07:01:46;;;;;;;;;;;12.60;99.90;;;12.06;100.00;97562.94;5046439;28;20784;-57
2022/10/02 07:04:33;;;;;;;3.13;1.30;;;12.50;99.90;;;12.05;100.00;97563.00;5049667;28;20668;-56
2022/10/02 07:07:41;;;;;;;5.25;1.38;;;12.50;99.90;;;12.00;100.00;97564.03;5048125;28;20127;-56
2022/10/02 07:10:19;;;;;;;2.70;1.25;;;12.50;99.90;;;11.98;100.00;97557.94;5050033;28;20409;-56
2022/10/02 07:13:15;;;;;;;3.30;1.25;;;12.40;99.90;;;11.98;100.00;97559.72;5047363;28;20124;-57
2022/10/02 07:16:24;;;;;;;5.05;1.13;;;12.40;99.90;;;12.01;100.00;97539.31;5047282;28;20043;-56
2022/10/02 07:19:08;;;;;;;3.47;1.25;;;12.40;99.90;;;12.05;100.00;97540.06;5048159;28;20047;-57
2022/10/02 07:21:57;;;;;;;3.17;1.50;;;12.50;99.90;;;12.11;100.00;97536.28;5046480;28;20033;-57
2022/10/02 07:25:04;;;;;;;5.63;1.50;;;12.50;99.90;;;12.13;100.00;97534.44;5046897;28;20036;-57
2022/10/02 07:27:49;;;;;;;4.18;1.38;;;12.50;99.90;;;12.14;100.00;97523.81;5050339;28;20024;-57
2022/10/02 07:30:17;;;;;;;8.70;1.83;;;12.60;99.90;;;12.14;100.00;97528.25;5046682;28;20037;-57
2022/10/02 07:32:51;;;;;;;3.35;1.35;;;12.60;99.90;;;12.13;100.00;97531.81;5046596;28;20036;-56
2022/10/02 07:35:43;;;;;;;3.67;1.30;;;12.60;99.90;;;12.13;100.00;97513.28;5047106;28;20024;-56
2022/10/02 07:38:41;;;;;;;3.47;1.35;;;12.60;99.90;;;12.16;100.00;97518.47;5047590;28;20029;-56
2022/10/02 07:41:49;;;;;;;4.57;1.80;;;12.60;99.90;;;12.16;100.00;97523.75;5047807;28;20028;-57
2022/10/02 07:44:42;;;;;;;4.47;1.75;;;12.60;99.90;;;12.16;100.00;97513.19;5013982;28;20094;-56
2022/10/02 07:47:23;;;;;;;3.88;1.52;;;12.60;99.90;;;12.16;100.00;97523.75;5065780;22;20685;-41
2022/10/02 07:50:15;;;;;;;3.00;1.63;;;12.60;99.90;;;12.14;100.00;97520.31;5054335;28;20108;-43
2022/10/02 07:53:25;;;;;;;1.25;1.10;;;12.60;99.90;;;12.14;100.00;97522.97;5051933;28;20036;-41
2022/10/02 07:55:52;;;;;;;1.60;1.10;;;12.60;99.90;;;12.13;100.00;97515.94;5048663;28;20497;-41
2022/10/02 07:58:41;;;;;;;1.48;1.05;;;12.60;99.90;;;12.03;100.00;97510.19;5051598;28;20029;-42
2022/10/02 08:01:19;;;;;;;1.38;1.13;;;12.60;99.90;;;12.16;100.00;97521.09;5061952;28;20024;-41
2022/10/02 08:04:02;;;;;;;3.60;1.60;;;12.60;99.90;;;12.20;100.00;97522.69;5045583;28;20043;-43
2022/10/02 08:06:31;;;;;;;4.15;1.70;;;12.60;99.90;;;12.23;100.00;97523.44;5047167;28;20207;-43
2022/10/02 08:09:13;;;;;;;4.38;2.40;;;12.70;99.90;;;12.24;100.00;97524.31;5037219;28;20107;-42
2022/10/02 08:12:00;;;;;;;4.38;2.67;;;12.70;99.90;;;12.29;100.00;97530.28;5048103;28;20120;-41
2022/10/02 08:14:42;;;;;;;5.30;2.70;;;12.70;99.90;;;12.35;100.00;97523.84;5052228;28;20422;-43
2022/10/02 08:17:44;;;;;;;5.43;2.35;;;12.80;99.90;;;12.44;100.00;97526.13;5047052;28;20029;-42
2022/10/02 08:20:35;;;;;;;7.47;2.88;;;12.90;99.90;;;12.49;100.00;97532.06;5050731;28;20036;-42
2022/10/02 08:23:13;;;;;;;5.35;2.22;;;12.90;99.90;;;12.63;100.00;97523.53;5048686;28;20856;-42
2022/10/02 08:26:11;;;;;;;7.10;2.53;;;13.10;99.90;;;12.81;100.00;97524.50;5050032;28;20086;-42
2022/10/02 08:28:43;;;;;;;5.90;2.05;;;13.20;99.90;;;13.11;100.00;97502.91;5052386;28;20166;-44
2022/10/02 08:31:11;;;;;;;3.90;1.70;;;13.50;99.90;;;13.54;100.00;97515.03;5050931;28;20113;-42
2022/10/02 08:33:38;;;;;;;6.82;2.17;;;14.00;99.90;;;13.87;100.00;97506.44;5052529;28;20135;-42
2022/10/02 08:36:19;;;;;;;9.02;2.13;;;14.40;99.90;;;14.07;100.00;97508.09;5051658;28;20028;-42
2022/10/02 08:38:50;;;;;;;3.75;1.70;;;14.60;99.90;;;14.24;100.00;97509.06;5050687;28;20124;-43
2022/10/02 08:41:41;;;;;;;4.60;1.77;;;14.70;99.90;;;14.16;100.00;97503.25;5048931;28;21286;-44
2022/10/02 08:44:47;;;;;;;5.97;1.80;;;14.70;99.90;;;14.27;100.00;97501.78;5049479;28;20029;-41
2022/10/02 08:47:52;;;;;;;7.80;2.25;;;14.80;99.90;;;14.36;100.00;97499.63;5050451;28;20037;-43
2022/10/02 08:50:30;;;;;;;7.80;2.42;;;14.80;99.90;;;14.40;100.00;97493.22;5023988;28;20094;-43
2022/10/02 08:53:20;;;;;;;8.77;2.20;;;14.80;99.90;;;14.37;100.00;97488.06;5044518;28;20049;-41
2022/10/02 08:56:23;;;;;;;6.13;2.22;;;14.90;99.90;;;14.45;100.00;97493.84;5048497;28;20040;-44
2022/10/02 08:59:25;;;;;;;;;;;14.90;99.90;;;14.39;100.00;97500.34;5050701;28;20024;-41
2022/10/02 09:02:15;;;;;;;4.78;1.75;;;14.90;99.90;;;14.44;100.00;97489.47;5047849;28;20505;-42
2022/10/02 09:05:47;;;;;;;4.13;1.92;;;14.90;99.90;;;14.58;100.00;97481.69;5048918;28;20031;-42
2022/10/02 09:08:57;;;;;;;5.65;2.10;;;15.00;99.90;;;14.74;100.00;97472.94;5032423;28;20126;-42
2022/10/02 09:12:03;;;;;;;5.82;1.65;;;15.20;99.90;;;14.94;100.00;97478.03;5049485;28;20037;-41
2022/10/02 09:14:51;;;;;;;5.40;1.60;;;15.30;99.90;;;14.97;100.00;97472.56;5049770;28;20037;-42
2022/10/02 09:17:35;;;;;;;3.70;1.92;;;15.40;99.90;;;14.91;100.00;97472.88;5050516;28;20048;-43
2022/10/02 09:20:03;;;;;;;3.75;1.70;;;15.40;99.90;;;14.92;100.00;97468.44;5049281;28;20041;-43
2022/10/02 09:23:06;;;;;;;8.30;2.05;;;15.30;99.90;;;14.87;100.00;97466.88;5049422;28;20029;-43
2022/10/02 09:26:11;;;;;;;3.65;1.58;;;15.30;99.90;;;14.97;100.00;97467.25;5047551;28;20035;-42
2022/10/02 09:29:20;;;;;;;6.32;2.17;;;15.40;99.90;;;15.04;100.00;97471.31;5050604;28;20158;-42
2022/10/02 09:31:54;;;;;;;5.90;2.38;;;15.40;99.90;;;15.26;100.00;97468.31;5047255;28;20033;-42
2022/10/02 09:34:54;;;;;;;4.10;1.95;;;15.70;99.90;;;15.42;100.00;97468.34;5055445;28;20796;-44
2022/10/02 09:37:54;;;;;;;7.13;1.95;;;15.80;99.90;;;15.51;100.00;97468.78;5053553;28;20061;-43
2022/10/02 09:40:58;;;;;;;3.22;1.50;;;15.90;99.90;;;15.55;100.00;97457.03;5051894;28;20028;-44
2022/10/02 09:43:44;;;;;;;3.22;1.50;;;15.90;99.90;;;15.52;100.00;97463.38;5049916;28;20398;-42
2022/10/02 09:47:15;;;;;;;4.75;1.90;;;15.90;99.90;;;15.37;100.00;97467.75;5051000;28;20087;-43
2022/10/02 09:50:11;;;;;;;6.28;1.70;;;15.70;99.90;;;15.11;100.00;97463.00;4991994;28;20032;-43
2022/10/02 09:52:52;;;;;;;8.52;2.70;;;15.50;99.90;;;14.73;100.00;97473.88;5049520;28;20036;-43
2022/10/02 09:55:48;;;;;;;10.88;3.03;;;15.30;99.90;;;14.54;100.00;97468.66;5050026;28;20021;-43
2022/10/02 09:58:20;;;;;;;5.55;2.35;;;15.10;99.90;;;14.40;100.00;97479.97;5049709;28;20029;-42
2022/10/02 10:01:16;;;;;;;4.88;2.22;;;14.90;99.90;;;14.20;100.00;97481.81;5047265;28;20078;-42
2022/10/02 10:03:59;;;;;;;5.70;2.03;;;14.70;99.90;;;14.05;100.00;97477.28;5048856;28;20035;-41
2022/10/02 10:06:59;;;;;;;6.43;2.40;;;14.60;99.90;;;13.92;100.00;97498.22;5047696;28;20029;-43
2022/10/02 10:09:28;;;;;;;5.15;2.20;;;14.40;99.90;;;13.79;100.00;97487.38;5048115;28;20044;-42
2022/10/02 10:12:31;;;;;;;6.10;2.35;;;14.30;99.90;;;13.96;100.00;97486.53;5048290;28;20426;-42
2022/10/02 10:15:33;;;;;;;5.75;2.05;;;14.40;99.90;;;14.27;100.00;97493.84;5049329;28;20033;-43
2022/10/02 10:18:41;;;;;;;3.10;2.15;;;14.70;99.90;;;14.41;100.00;97497.56;5049057;28;20086;-44
2022/10/02 10:21:41;;;;;;;2.63;1.65;;;14.90;99.90;;;14.43;100.00;97498.38;5050610;28;20496;-44
2022/10/02 10:25:03;;;;;;;3.80;1.63;;;14.90;99.90;;;14.33;100.00;97511.25;5051291;28;20194;-42
2022/10/02 10:27:57;;;;;;;3.53;1.75;;;14.80;99.90;;;14.33;100.00;97493.50;5048899;28;20032;-42
2022/10/02 10:30:50;;;;;;;4.80;1.85;;;14.80;99.90;;;14.54;100.00;97473.94;5049025;28;20502;-42
2022/10/02 10:33:56;;;;;;;2.92;1.73;;;15.00;99.90;;;14.94;100.00;97478.03;5047244;28;20037;-44
2022/10/02 10:40:04;;;;;;;6.28;1.42;;;15.70;99.90;;;15.21;100.00;97496.09;5048158;28;20110;-43
2022/10/02 10:43:03;;;;;;;2.10;1.20;;;15.70;99.90;;;15.11;100.00;97500.19;5048669;28;20056;-44
2022/10/02 10:45:53;;;;;;;3.22;1.25;;;15.60;99.90;;;15.05;100.00;97496.91;5047757;28;20056;-43
2022/10/02 10:48:26;;;;;;;1.92;0.98;;;15.50;99.90;;;14.95;100.00;97506.31;5051729;28;20037;-42
2022/10/02 10:51:30;;;;;;;;;;;15.40;99.90;;;14.73;100.00;97524.31;5044802;28;20363;-43
2022/10/02 10:54:39;;;;;;;2.22;1.08;;;15.20;99.90;;;14.44;100.00;97523.97;5048457;28;20019;-41
2022/10/02 10:57:55;;;;;;;2.25;1.00;;;14.90;99.90;;;14.19;100.00;97495.16;5051857;28;20036;-43
2022/10/02 11:00:25;;;;;;;1.13;0.80;;;14.60;99.90;;;14.09;100.00;97506.22;5049321;28;20066;-42
2022/10/02 11:03:13;;;;;;;4.70;1.23;;;14.50;99.90;;;14.01;100.00;97502.22;5048430;28;20033;-44
2022/10/02 11:06:02;;;;;;;1.35;0.95;;;14.50;99.90;;;14.02;100.00;97514.56;5048782;28;20025;-43
2022/10/02 11:08:31;;;;;;;1.40;0.90;;;14.40;99.90;;;14.09;100.00;97508.03;5048757;28;20113;-42
2022/10/02 11:11:20;;;;;;;1.10;0.85;;;14.50;99.90;;;14.04;100.00;97523.31;5048171;28;20060;-43
2022/10/02 11:14:15;;;;;;;1.40;0.93;;;14.50;99.90;;;14.05;100.00;97527.66;5048743;28;20037;-42
2022/10/02 11:17:09;;;;;;;1.65;0.90;;;14.50;99.90;;;14.13;100.00;97523.69;5046835;28;20371;-45
2022/10/02 11:20:11;;;;;;;2.85;0.80;;;14.60;99.90;;;14.29;100.00;97523.78;5049140;28;20058;-42
2022/10/02 11:23:14;;;;;;;2.53;0.77;;;14.70;99.90;;;14.50;100.00;97515.72;5047687;28;20068;-43
2022/10/02 11:26:20;;;;;;;;;;;14.90;99.90;;;14.64;100.00;97528.28;5048853;28;20032;-45
2022/10/02 11:28:58;;;;;;;1.05;0.65;;;15.10;99.90;;;14.76;100.00;97522.34;5048642;28;19917;-42
2022/10/02 11:32:04;;;;;;;1.45;0.60;;;15.20;99.90;;;14.76;100.00;97518.84;5047326;28;20029;-43
2022/10/02 11:35:18;;;;;;;2.17;0.60;;;15.20;99.90;;;14.74;100.00;97512.75;5041545;28;20065;-42
2022/10/02 11:38:14;;;;;;;0.50;0.50;;;15.20;99.90;;;14.68;100.00;97506.81;5048021;28;20056;-42
2022/10/02 11:40:53;;;;;;;1.85;0.70;;;15.20;99.90;;;14.65;100.00;97511.44;5048365;28;20505;-43